createdAt,value
2022-08-29T00:00:24.670Z,20.50
2022-08-29T00:02:54.823Z,20.50
2022-08-29T00:05:26.998Z,20.50
2022-08-29T00:07:53.956Z,20.50
2022-08-29T00:10:24.386Z,20.50
2022-08-29T00:12:54.125Z,20.50
2022-08-29T00:15:26.338Z,20.40
2022-08-29T00:17:53.690Z,20.40
2022-08-29T00:20:30.385Z,20.40
2022-08-29T00:23:06.170Z,20.40
2022-08-29T00:25:33.068Z,20.30
2022-08-29T00:28:00.174Z,20.30
2022-08-29T00:30:27.302Z,20.30
2022-08-29T00:32:56.996Z,20.20
2022-08-29T00:35:32.510Z,20.20
2022-08-29T00:38:03.365Z,20.20
2022-08-29T00:40:45.014Z,20.10
2022-08-29T00:43:22.545Z,20.00
2022-08-29T00:46:47.714Z,19.90
2022-08-29T00:49:39.318Z,19.90
2022-08-29T00:52:37.361Z,19.90
2022-08-29T00:55:12.237Z,19.90
2022-08-29T00:57:45.399Z,19.80
2022-08-29T01:00:15.187Z,19.90
2022-08-29T01:02:43.106Z,19.80
2022-08-29T01:05:15.268Z,19.90
2022-08-29T01:07:43.195Z,19.90
2022-08-29T01:10:12.709Z,19.80
2022-08-29T01:12:41.357Z,19.90
2022-08-29T01:15:12.827Z,19.90
2022-08-29T01:17:47.214Z,19.80
2022-08-29T01:20:51.251Z,19.80
2022-08-29T01:23:28.215Z,19.80
2022-08-29T01:25:55.859Z,19.80
2022-08-29T01:28:33.423Z,19.70
2022-08-29T01:31:09.380Z,19.70
2022-08-29T01:33:42.437Z,19.70
2022-08-29T01:36:14.439Z,19.70
2022-08-29T01:38:42.032Z,19.70
2022-08-29T01:41:10.787Z,19.70
2022-08-29T01:43:48.867Z,19.60
2022-08-29T01:46:22.910Z,19.60
2022-08-29T01:48:49.887Z,19.70
2022-08-29T01:51:17.888Z,19.70
2022-08-29T01:53:50.500Z,19.60
2022-08-29T01:56:43.780Z,19.60
2022-08-29T01:59:14.925Z,19.60
2022-08-29T02:01:57.398Z,19.60
2022-08-29T02:04:27.332Z,19.60
2022-08-29T02:06:57.386Z,19.60
2022-08-29T02:09:27.799Z,19.50
2022-08-29T02:11:58.103Z,19.50
2022-08-29T02:14:27.666Z,19.50
2022-08-29T02:16:55.198Z,19.50
2022-08-29T02:19:22.208Z,19.40
2022-08-29T02:21:51.403Z,19.40
2022-08-29T02:24:27.617Z,19.40
2022-08-29T02:27:00.980Z,19.40
2022-08-29T02:29:37.292Z,19.30
2022-08-29T02:32:08.680Z,19.30
2022-08-29T02:34:36.034Z,19.30
2022-08-29T02:37:05.059Z,19.30
2022-08-29T02:39:35.817Z,19.20
2022-08-29T02:42:03.747Z,19.30
2022-08-29T02:44:31.265Z,19.30
2022-08-29T02:46:58.253Z,19.30
2022-08-29T02:49:25.190Z,19.30
2022-08-29T02:51:52.124Z,19.20
2022-08-29T02:54:19.079Z,19.20
2022-08-29T02:56:46.081Z,19.20
2022-08-29T02:59:14.203Z,19.20
2022-08-29T03:01:41.247Z,19.20
2022-08-29T03:04:08.209Z,19.10
2022-08-29T03:06:37.373Z,19.10
2022-08-29T03:09:07.531Z,19.10
2022-08-29T03:11:34.842Z,19.00
2022-08-29T03:14:02.002Z,19.00
2022-08-29T03:16:29.439Z,19.00
2022-08-29T03:18:56.601Z,19.00
2022-08-29T03:21:28.837Z,19.00
2022-08-29T03:23:56.547Z,19.00
2022-08-29T03:26:24.466Z,18.90
2022-08-29T03:28:51.939Z,18.90
2022-08-29T03:31:19.152Z,18.90
2022-08-29T03:33:46.093Z,18.90
2022-08-29T03:36:14.551Z,18.90
2022-08-29T03:38:43.616Z,18.90
2022-08-29T03:41:11.042Z,19.00
2022-08-29T03:43:40.523Z,18.90
2022-08-29T03:46:07.549Z,19.00
2022-08-29T03:48:36.627Z,19.00
2022-08-29T03:51:08.128Z,19.00
2022-08-29T03:53:38.180Z,18.90
2022-08-29T03:56:07.221Z,19.00
2022-08-29T03:58:37.966Z,18.90
2022-08-29T04:01:06.296Z,18.90
2022-08-29T04:03:33.282Z,18.90
2022-08-29T04:06:00.291Z,18.90
2022-08-29T04:08:31.857Z,18.90
2022-08-29T04:11:04.004Z,18.90
2022-08-29T04:13:30.933Z,18.90
2022-08-29T04:15:57.908Z,18.90
2022-08-29T04:18:27.679Z,18.80
2022-08-29T04:21:02.925Z,18.80
2022-08-29T04:23:33.817Z,18.80
2022-08-29T04:26:26.844Z,18.80
2022-08-29T04:28:53.029Z,18.80
2022-08-29T04:31:23.120Z,18.80
2022-08-29T04:33:50.834Z,18.80
2022-08-29T04:36:20.801Z,18.80
2022-08-29T04:38:51.018Z,18.80
2022-08-29T04:41:18.770Z,18.80
2022-08-29T04:43:48.765Z,18.70
2022-08-29T04:46:24.581Z,18.70
2022-08-29T04:48:53.222Z,18.70
2022-08-29T04:51:21.061Z,18.70
2022-08-29T04:53:50.723Z,18.70
2022-08-29T04:56:20.781Z,18.70
2022-08-29T04:58:52.078Z,18.70
2022-08-29T05:01:27.070Z,18.60
2022-08-29T05:03:55.171Z,18.60
2022-08-29T05:06:23.777Z,18.60
2022-08-29T05:08:59.837Z,18.50
2022-08-29T05:11:32.329Z,18.50
2022-08-29T05:14:02.893Z,18.50
2022-08-29T05:16:30.777Z,18.50
2022-08-29T05:18:59.616Z,18.50
2022-08-29T05:21:35.505Z,18.40
2022-08-29T05:24:08.426Z,18.40
2022-08-29T05:26:41.991Z,18.40
2022-08-29T05:29:13.243Z,18.40
2022-08-29T05:31:42.108Z,18.40
2022-08-29T05:34:31.909Z,18.30
2022-08-29T05:37:08.109Z,18.30
2022-08-29T05:39:44.376Z,18.40
2022-08-29T05:42:17.383Z,18.30
2022-08-29T05:44:54.887Z,18.40
2022-08-29T05:47:25.408Z,18.50
2022-08-29T05:49:57.188Z,18.50
2022-08-29T05:52:28.303Z,18.60
2022-08-29T05:54:55.233Z,18.60
2022-08-29T05:57:25.925Z,18.70
2022-08-29T05:59:54.426Z,18.60
2022-08-29T06:02:23.204Z,18.70
2022-08-29T06:04:50.856Z,18.60
2022-08-29T06:07:23.401Z,18.70
2022-08-29T06:09:53.238Z,18.70
2022-08-29T06:12:20.898Z,18.80
2022-08-29T06:14:53.698Z,18.80
2022-08-29T06:17:23.593Z,18.80
2022-08-29T06:19:54.647Z,18.80
2022-08-29T06:22:27.019Z,18.90
2022-08-29T06:24:57.521Z,18.90
2022-08-29T06:27:28.056Z,18.90
2022-08-29T06:29:56.019Z,19.00
2022-08-29T06:32:24.441Z,19.00
2022-08-29T06:34:51.378Z,19.10
2022-08-29T06:37:18.295Z,19.10
2022-08-29T06:39:48.351Z,19.20
2022-08-29T06:42:18.776Z,19.20
2022-08-29T06:44:45.699Z,19.30
2022-08-29T06:47:12.674Z,19.40
2022-08-29T06:49:39.784Z,19.40
2022-08-29T06:52:06.756Z,19.50
2022-08-29T06:54:34.032Z,19.50
2022-08-29T06:57:00.978Z,19.60
2022-08-29T06:59:30.956Z,19.70
2022-08-29T07:01:58.029Z,19.80
2022-08-29T07:04:27.385Z,19.90
2022-08-29T07:06:54.430Z,20.00
2022-08-29T07:09:21.514Z,20.20
2022-08-29T07:11:50.820Z,20.30
2022-08-29T07:14:20.831Z,20.40
2022-08-29T07:16:49.786Z,20.50
2022-08-29T07:19:16.763Z,20.70
2022-08-29T07:21:43.702Z,20.90
2022-08-29T07:24:13.771Z,21.10
2022-08-29T07:26:43.807Z,21.50
2022-08-29T07:29:17.440Z,21.80
2022-08-29T07:31:44.970Z,22.20
2022-08-29T07:34:12.328Z,22.60
2022-08-29T07:36:40.187Z,22.90
2022-08-29T07:39:15.743Z,23.20
2022-08-29T07:41:46.593Z,23.30
2022-08-29T07:44:18.031Z,23.50
2022-08-29T07:46:48.067Z,23.70
2022-08-29T07:49:17.469Z,23.80
2022-08-29T07:51:47.409Z,24.00
2022-08-29T07:54:16.891Z,24.20
2022-08-29T07:56:44.467Z,24.40
2022-08-29T07:59:14.310Z,24.70
2022-08-29T08:01:43.873Z,25.00
2022-08-29T08:04:14.181Z,25.30
2022-08-29T08:06:43.040Z,25.80
2022-08-29T08:09:11.374Z,26.20
2022-08-29T08:11:40.982Z,26.70
2022-08-29T08:14:08.637Z,27.20
2022-08-29T08:16:38.724Z,27.70
2022-08-29T08:19:15.711Z,28.10
2022-08-29T08:21:49.738Z,28.60
2022-08-29T08:24:19.794Z,29.00
2022-08-29T08:26:48.651Z,29.40
2022-08-29T08:29:21.193Z,29.70
2022-08-29T08:31:51.642Z,30.00
2022-08-29T08:34:24.771Z,30.30
2022-08-29T08:36:51.785Z,30.60
2022-08-29T08:39:19.307Z,30.90
2022-08-29T08:42:20.605Z,31.10
2022-08-29T08:45:05.939Z,31.30
2022-08-29T08:47:43.101Z,31.50
2022-08-29T08:50:12.858Z,31.60
2022-08-29T08:53:10.427Z,31.80
2022-08-29T08:55:44.753Z,31.90
2022-08-29T08:58:33.396Z,31.90
2022-08-29T09:01:04.606Z,32.10
2022-08-29T09:03:58.879Z,32.20
2022-08-29T09:06:44.902Z,32.30
2022-08-29T09:09:29.798Z,32.40
2022-08-29T09:12:13.607Z,32.50
2022-08-29T09:14:49.362Z,32.60
2022-08-29T09:17:37.019Z,32.70
2022-08-29T09:20:14.326Z,32.80
2022-08-29T09:22:44.360Z,32.90
2022-08-29T09:25:14.203Z,33.00
2022-08-29T09:27:44.845Z,33.00
2022-08-29T09:30:18.107Z,32.90
2022-08-29T09:33:19.109Z,32.90
2022-08-29T09:35:52.650Z,33.00
2022-08-29T09:38:21.230Z,33.10
2022-08-29T09:41:00.400Z,33.10
2022-08-29T09:43:39.678Z,33.10
2022-08-29T09:46:19.102Z,33.10
2022-08-29T09:48:57.771Z,33.10
2022-08-29T09:51:31.574Z,33.10
2022-08-29T09:54:11.115Z,33.10
2022-08-29T09:56:52.586Z,33.10
2022-08-29T09:59:27.891Z,33.10
2022-08-29T10:02:25.948Z,33.10
2022-08-29T10:05:01.353Z,32.90
2022-08-29T10:07:33.779Z,32.80
2022-08-29T10:10:06.468Z,32.60
2022-08-29T10:13:02.101Z,32.60
2022-08-29T10:16:21.833Z,32.60
2022-08-29T10:19:01.994Z,32.60
2022-08-29T10:22:04.936Z,32.70
2022-08-29T10:24:46.866Z,32.80
2022-08-29T10:27:22.717Z,32.90
2022-08-29T10:30:11.530Z,32.90
2022-08-29T10:33:25.290Z,32.80
2022-08-29T10:36:19.551Z,32.80
2022-08-29T10:39:16.991Z,32.80
2022-08-29T10:42:00.532Z,32.80
2022-08-29T10:45:03.503Z,32.80
2022-08-29T10:47:42.552Z,32.70
2022-08-29T10:50:43.736Z,32.60
2022-08-29T10:53:32.083Z,32.50
2022-08-29T10:56:25.325Z,32.40
2022-08-29T10:59:09.064Z,32.00
2022-08-29T11:02:18.706Z,31.70
2022-08-29T11:04:57.354Z,31.40
2022-08-29T11:07:36.079Z,31.10
2022-08-29T11:10:26.418Z,30.80
2022-08-29T11:13:04.084Z,30.60
2022-08-29T11:15:56.959Z,30.50
2022-08-29T11:18:55.751Z,30.30
2022-08-29T11:21:39.018Z,30.20
2022-08-29T11:24:07.269Z,30.10
2022-08-29T11:26:43.218Z,30.20
2022-08-29T11:29:20.110Z,30.20
2022-08-29T11:32:36.232Z,30.30
2022-08-29T11:35:23.187Z,30.40
2022-08-29T11:38:12.924Z,30.40
2022-08-29T11:43:49.231Z,30.20
2022-08-29T11:46:17.362Z,30.00
2022-08-29T11:48:55.755Z,29.90
2022-08-29T11:51:37.581Z,29.60
2022-08-29T11:54:28.654Z,29.40
2022-08-29T11:57:02.186Z,29.30
2022-08-29T11:59:49.742Z,29.10
2022-08-29T12:02:30.856Z,29.00
2022-08-29T12:04:59.553Z,28.90
2022-08-29T12:07:42.082Z,28.90
2022-08-29T12:10:20.040Z,29.00
2022-08-29T12:12:52.835Z,29.10
2022-08-29T12:15:40.708Z,29.00
2022-08-29T12:18:15.440Z,28.90
2022-08-29T12:20:50.450Z,28.80
2022-08-29T12:23:39.672Z,28.60
2022-08-29T12:26:48.262Z,28.50
2022-08-29T12:29:44.383Z,28.40
2022-08-29T12:32:41.991Z,28.30
2022-08-29T12:35:34.781Z,28.30
2022-08-29T12:38:27.610Z,28.40
2022-08-29T12:41:22.541Z,28.50
2022-08-29T12:43:54.711Z,28.50
2022-08-29T12:46:36.821Z,28.50
2022-08-29T12:49:22.909Z,28.40
2022-08-29T12:51:57.487Z,28.40
2022-08-29T12:54:35.660Z,28.40
2022-08-29T12:57:06.945Z,28.30
2022-08-29T12:59:35.378Z,28.20
2022-08-29T13:02:02.561Z,28.10
2022-08-29T13:04:33.747Z,28.00
2022-08-29T13:07:04.083Z,28.00
2022-08-29T13:09:49.504Z,28.00
2022-08-29T13:12:34.603Z,28.10
2022-08-29T13:15:17.088Z,28.30
2022-08-29T13:17:49.515Z,28.40
2022-08-29T13:20:38.047Z,28.50
2022-08-29T13:23:12.737Z,28.60
2022-08-29T13:26:21.874Z,28.60
2022-08-29T13:29:12.986Z,28.70
2022-08-29T13:31:40.331Z,28.80
2022-08-29T13:34:07.288Z,28.80
2022-08-29T13:36:51.205Z,28.80
2022-08-29T13:39:18.153Z,28.90
2022-08-29T13:42:03.242Z,28.90
2022-08-29T13:44:49.587Z,29.00
2022-08-29T13:47:23.402Z,29.00
2022-08-29T13:49:54.239Z,29.00
2022-08-29T13:52:24.181Z,29.00
2022-08-29T13:54:59.531Z,29.10
2022-08-29T13:57:29.375Z,29.10
2022-08-29T14:00:01.519Z,29.10
2022-08-29T14:02:28.882Z,29.20
2022-08-29T14:04:59.037Z,29.20
2022-08-29T14:07:30.415Z,29.10
2022-08-29T14:09:58.504Z,29.00
2022-08-29T14:12:33.987Z,28.90
2022-08-29T14:15:10.063Z,28.90
2022-08-29T14:17:40.656Z,28.90
2022-08-29T14:20:12.510Z,28.90
2022-08-29T14:22:39.703Z,28.90
2022-08-29T14:25:11.317Z,28.80
2022-08-29T14:27:41.583Z,28.90
2022-08-29T14:30:13.616Z,28.80
2022-08-29T14:32:43.010Z,28.80
2022-08-29T14:35:11.091Z,28.80
2022-08-29T14:37:58.157Z,28.80
2022-08-29T14:40:28.881Z,28.80
2022-08-29T14:42:58.546Z,28.60
2022-08-29T14:45:27.242Z,28.60
2022-08-29T14:47:54.495Z,28.60
2022-08-29T14:50:22.788Z,28.60
2022-08-29T14:52:54.866Z,28.50
2022-08-29T14:55:21.977Z,28.40
2022-08-29T14:57:49.592Z,28.40
2022-08-29T15:00:31.087Z,28.30
2022-08-29T15:02:59.897Z,28.20
2022-08-29T15:05:26.937Z,28.20
2022-08-29T15:07:53.890Z,28.20
2022-08-29T15:10:25.465Z,28.10
2022-08-29T15:12:56.100Z,28.10
2022-08-29T15:15:29.698Z,28.10
2022-08-29T15:18:05.324Z,28.00
2022-08-29T15:20:37.675Z,28.00
2022-08-29T15:23:08.191Z,27.90
2022-08-29T15:25:44.994Z,27.90
2022-08-29T15:28:19.670Z,27.80
2022-08-29T15:30:47.489Z,27.80
2022-08-29T15:33:18.110Z,27.80
2022-08-29T15:35:45.066Z,27.70
2022-08-29T15:38:16.870Z,27.70
2022-08-29T15:40:44.007Z,27.60
2022-08-29T15:43:11.599Z,27.60
2022-08-29T15:45:38.802Z,27.60
2022-08-29T15:48:11.487Z,27.60
2022-08-29T15:50:41.191Z,27.50
2022-08-29T15:53:08.549Z,27.50
2022-08-29T15:55:35.447Z,27.50
2022-08-29T15:58:04.704Z,27.40
2022-08-29T16:00:31.877Z,27.40
2022-08-29T16:03:02.542Z,27.40
2022-08-29T16:05:30.792Z,27.40
2022-08-29T16:07:57.791Z,27.40
2022-08-29T16:10:24.809Z,27.40
2022-08-29T16:12:54.791Z,27.30
2022-08-29T16:15:21.900Z,27.30
2022-08-29T16:17:48.941Z,27.30
2022-08-29T16:20:16.211Z,27.30
2022-08-29T16:22:45.900Z,27.30
2022-08-29T16:25:15.151Z,27.30
2022-08-29T16:27:44.356Z,27.30
2022-08-29T16:30:12.188Z,27.30
2022-08-29T16:32:39.540Z,27.30
2022-08-29T16:35:07.478Z,27.20
2022-08-29T16:37:34.681Z,27.20
2022-08-29T16:40:03.813Z,27.20
2022-08-29T16:42:30.983Z,27.20
2022-08-29T16:44:58.018Z,27.10
2022-08-29T16:47:24.968Z,27.20
2022-08-29T16:49:56.594Z,27.10
2022-08-29T16:52:26.070Z,27.10
2022-08-29T16:54:53.881Z,27.10
2022-08-29T16:57:24.427Z,27.10
2022-08-29T16:59:56.032Z,27.10
2022-08-29T17:02:25.403Z,27.10
2022-08-29T17:04:52.577Z,27.20
2022-08-29T17:07:20.010Z,27.20
2022-08-29T17:09:46.887Z,27.20
2022-08-29T17:12:13.822Z,27.20
2022-08-29T17:14:43.096Z,27.20
2022-08-29T17:17:12.361Z,27.20
2022-08-29T17:19:39.427Z,27.20
2022-08-29T17:22:06.310Z,27.20
2022-08-29T17:24:33.243Z,27.20
2022-08-29T17:27:00.231Z,27.20
2022-08-29T17:29:27.273Z,27.10
2022-08-29T17:31:57.485Z,27.10
2022-08-29T17:34:24.522Z,27.00
2022-08-29T17:36:51.452Z,27.00
2022-08-29T17:39:19.578Z,27.00
2022-08-29T17:41:54.724Z,26.90
2022-08-29T17:44:21.686Z,26.80
2022-08-29T17:46:51.888Z,26.70
2022-08-29T17:49:21.422Z,26.70
2022-08-29T17:51:55.615Z,26.60
2022-08-29T17:54:26.514Z,26.50
2022-08-29T17:56:59.255Z,26.40
2022-08-29T17:59:33.478Z,26.30
2022-08-29T18:02:00.986Z,26.20
2022-08-29T18:04:28.300Z,26.10
2022-08-29T18:06:58.939Z,26.00
2022-08-29T18:09:26.390Z,25.90
2022-08-29T18:11:58.357Z,25.80
2022-08-29T18:14:26.219Z,25.80
2022-08-29T18:16:54.564Z,25.70
2022-08-29T18:19:22.779Z,25.60
2022-08-29T18:21:53.892Z,25.50
2022-08-29T18:24:21.160Z,25.40
2022-08-29T18:26:49.674Z,25.30
2022-08-29T18:29:17.723Z,25.20
2022-08-29T18:31:47.456Z,25.10
2022-08-29T18:34:15.414Z,25.00
2022-08-29T18:36:46.960Z,25.00
2022-08-29T18:39:16.380Z,24.90
2022-08-29T18:41:43.497Z,24.90
2022-08-29T18:44:12.695Z,24.80
2022-08-29T18:46:48.303Z,24.80
2022-08-29T18:49:16.240Z,24.70
2022-08-29T18:51:47.063Z,24.70
2022-08-29T18:54:19.489Z,24.60
2022-08-29T18:56:47.051Z,24.50
2022-08-29T18:59:14.277Z,24.50
2022-08-29T19:01:42.902Z,24.40
2022-08-29T19:04:12.344Z,24.40
2022-08-29T19:06:39.387Z,24.40
2022-08-29T19:09:06.334Z,24.30
2022-08-29T19:11:35.934Z,24.30
2022-08-29T19:14:03.229Z,24.30
2022-08-29T19:16:32.809Z,24.30
2022-08-29T19:19:02.071Z,24.30
2022-08-29T19:21:29.140Z,24.20
2022-08-29T19:23:59.203Z,24.20
2022-08-29T19:26:34.260Z,24.10
2022-08-29T19:29:12.642Z,24.10
2022-08-29T19:31:45.805Z,24.00
2022-08-29T19:34:13.193Z,24.00
2022-08-29T19:36:46.787Z,24.00
2022-08-29T19:39:14.744Z,24.00
2022-08-29T19:41:44.664Z,23.90
2022-08-29T19:44:12.297Z,23.90
2022-08-29T19:46:45.003Z,23.90
2022-08-29T19:49:15.736Z,23.80
2022-08-29T19:51:43.905Z,23.80
2022-08-29T19:54:11.036Z,23.70
2022-08-29T19:56:41.818Z,23.70
2022-08-29T19:59:15.933Z,23.60
2022-08-29T20:01:45.872Z,23.60
2022-08-29T20:04:12.958Z,23.60
2022-08-29T20:06:40.110Z,23.60
2022-08-29T20:09:10.729Z,23.50
2022-08-29T20:11:43.650Z,23.50
2022-08-29T20:14:11.130Z,23.50
2022-08-29T20:16:41.848Z,23.50
2022-08-29T20:19:11.912Z,23.40
2022-08-29T20:21:40.886Z,23.40
2022-08-29T20:24:07.859Z,23.40
2022-08-29T20:26:37.738Z,23.40
2022-08-29T20:29:09.186Z,23.30
2022-08-29T20:31:37.884Z,23.30
2022-08-29T20:34:07.452Z,23.30
2022-08-29T20:36:58.378Z,23.20
2022-08-29T20:39:27.895Z,23.20
2022-08-29T20:41:58.246Z,23.10
2022-08-29T20:44:33.582Z,23.10
2022-08-29T20:47:01.154Z,23.10
2022-08-29T20:49:28.129Z,23.00
2022-08-29T20:51:55.348Z,23.00
2022-08-29T20:54:25.060Z,22.90
2022-08-29T20:56:53.380Z,22.90
2022-08-29T20:59:23.576Z,22.90
2022-08-29T21:01:53.496Z,22.90
2022-08-29T21:04:39.210Z,22.80
2022-08-29T21:07:10.237Z,22.80
2022-08-29T21:09:43.325Z,22.70
2022-08-29T21:12:13.404Z,22.70
2022-08-29T21:14:42.905Z,22.70
2022-08-29T21:17:13.016Z,22.70
2022-08-29T21:19:41.748Z,22.60
2022-08-29T21:22:11.675Z,22.60
2022-08-29T21:24:40.392Z,22.60
2022-08-29T21:27:10.605Z,22.60
2022-08-29T21:29:38.001Z,22.60
2022-08-29T21:32:05.117Z,22.60
2022-08-29T21:34:32.053Z,22.50
2022-08-29T21:37:02.250Z,22.50
2022-08-29T21:39:30.393Z,22.50
2022-08-29T21:42:02.890Z,22.50
2022-08-29T21:44:40.307Z,22.40
2022-08-29T21:47:07.631Z,22.40
2022-08-29T21:49:37.322Z,22.40
2022-08-29T21:52:05.915Z,22.40
2022-08-29T21:54:33.373Z,22.40
2022-08-29T21:57:00.331Z,22.30
2022-08-29T21:59:34.682Z,22.30
2022-08-29T22:02:04.209Z,22.30
2022-08-29T22:04:32.829Z,22.30
2022-08-29T22:06:59.869Z,22.30
2022-08-29T22:09:30.195Z,22.20
2022-08-29T22:11:57.418Z,22.20
2022-08-29T22:14:47.532Z,22.10
2022-08-29T22:17:16.958Z,22.00
2022-08-29T22:19:43.923Z,22.00
2022-08-29T22:22:13.308Z,22.00
2022-08-29T22:24:40.558Z,22.00
2022-08-29T22:27:10.391Z,21.90
2022-08-29T22:29:37.521Z,21.90
2022-08-29T22:32:05.091Z,21.90
2022-08-29T22:34:32.009Z,21.80
2022-08-29T22:37:01.410Z,21.80
2022-08-29T22:39:30.853Z,21.80
2022-08-29T22:41:57.794Z,21.80
2022-08-29T22:47:11.695Z,21.70
2022-08-29T22:49:40.376Z,21.70
2022-08-29T22:52:11.631Z,21.70
2022-08-29T22:54:38.918Z,21.60
2022-08-29T22:57:12.952Z,21.60
2022-08-29T22:59:41.620Z,21.60
2022-08-29T23:02:09.942Z,21.60
2022-08-29T23:04:37.589Z,21.60
2022-08-29T23:07:11.809Z,21.50
2022-08-29T23:09:41.388Z,21.50
2022-08-29T23:12:10.507Z,21.40
2022-08-29T23:14:41.995Z,21.40
2022-08-29T23:17:09.483Z,21.40
2022-08-29T23:19:38.453Z,21.40
2022-08-29T23:22:10.938Z,21.30
2022-08-29T23:24:39.297Z,21.30
2022-08-29T23:27:10.675Z,21.30
2022-08-29T23:29:42.005Z,21.30
2022-08-29T23:32:11.670Z,21.20
2022-08-29T23:34:38.592Z,21.20
2022-08-29T23:37:05.547Z,21.20
2022-08-29T23:39:34.743Z,21.10
2022-08-29T23:42:04.205Z,21.10
2022-08-29T23:44:31.093Z,21.10
2022-08-29T23:47:00.445Z,21.10
2022-08-29T23:49:29.937Z,21.10
2022-08-29T23:51:59.373Z,21.00
2022-08-29T23:54:26.413Z,21.00
2022-08-29T23:56:55.768Z,20.90
2022-08-29T23:59:41.472Z,20.90
